Time;durP1;ratioP1;P1;durP2;ratioP2;P2;SDS_P1;SDS_P2;PMS_P1;PMS_P2;Temp;Humidity;BMP_temperature;BMP_pressure;BME280_temperature;BME280_humidity;BME280_pressure;Samples;Min_cycle;Max_cycle;Signal;HPM_P1;HPM_P2
2022/10/09 00:01:09;;;;;;;14.00;3.85;;;7.80;99.90;;;;;;5046120;28;20033;-84
2022/10/09 00:03:36;;;;;;;6.05;3.38;;;7.80;99.90;;;;;;5046066;28;20120;-85
2022/10/09 00:06:03;;;;;;;10.82;4.28;;;7.80;99.90;;;;;;5048702;28;20046;-85
2022/10/09 00:08:29;;;;;;;10.07;3.97;;;7.80;99.90;;;;;;5028006;28;20633;-85
2022/10/09 00:10:55;;;;;;;10.20;3.92;;;7.80;99.90;;;;;;5026771;28;20041;-85
2022/10/09 00:13:20;;;;;;;7.72;3.40;;;7.70;99.90;;;;;;5041585;28;20037;-85
2022/10/09 00:15:46;;;;;;;10.68;3.40;;;7.70;99.90;;;;;;5012559;28;20108;-85
2022/10/09 00:18:15;;;;;;;6.68;3.10;;;7.70;99.90;;;;;;5032334;28;20119;-85
2022/10/09 00:20:43;;;;;;;9.00;2.92;;;7.60;99.90;;;;;;5028639;28;20053;-85
2022/10/09 00:23:13;;;;;;;5.90;2.90;;;7.60;99.90;;;;;;5031878;28;20128;-85
2022/10/09 00:25:39;;;;;;;7.13;3.30;;;7.60;99.90;;;;;;5023869;28;20173;-85
2022/10/09 00:28:04;;;;;;;7.35;3.35;;;7.60;99.90;;;;;;5024066;28;20085;-85
2022/10/09 00:30:31;;;;;;;7.45;2.88;;;7.50;99.90;;;;;;5030468;28;20037;-85
2022/10/09 00:32:56;;;;;;;15.88;4.20;;;7.50;99.90;;;;;;5039856;28;20072;-85
2022/10/09 00:35:24;;;;;;;7.97;3.53;;;7.50;99.90;;;;;;5047010;28;20060;-84
2022/10/09 00:37:49;;;;;;;6.68;3.00;;;7.50;99.90;;;;;;5028759;28;20046;-85
2022/10/09 00:40:15;;;;;;;8.57;3.53;;;7.50;99.90;;;;;;5028815;28;20074;-84
2022/10/09 00:42:44;;;;;;;9.57;3.55;;;7.40;99.90;;;;;;5026980;28;20040;-85
2022/10/09 00:45:18;;;;;;;8.20;3.30;;;7.40;99.90;;;;;;5043598;28;20057;-85
2022/10/09 00:47:54;;;;;;;7.10;3.17;;;7.40;99.90;;;;;;5046370;28;20095;-83
2022/10/09 00:50:46;;;;;;;12.52;4.00;;;7.40;99.90;;;;;;5040671;28;20041;-84
2022/10/09 00:53:14;;;;;;;3.85;3.17;;;7.40;99.90;;;;;;5044832;28;20064;-84
2022/10/09 00:55:42;;;;;;;6.20;2.95;;;7.30;99.90;;;;;;5046757;28;20053;-84
2022/10/09 00:58:07;;;;;;;9.25;3.25;;;7.30;99.90;;;;;;5048753;28;20055;-84
2022/10/09 01:00:34;;;;;;;6.75;2.75;;;7.30;99.90;;;;;;5045977;28;20065;-84
2022/10/09 01:02:59;;;;;;;5.15;3.20;;;7.30;99.90;;;;;;5046369;28;20069;-83
2022/10/09 01:05:43;;;;;;;6.30;3.13;;;7.20;99.90;;;;;;5039643;28;20058;-83
2022/10/09 01:08:18;;;;;;;7.60;2.80;;;7.20;99.90;;;;;;5042533;28;20564;-83
2022/10/09 01:11:04;;;;;;;8.93;3.40;;;7.20;99.90;;;;;;5041418;28;20041;-83
2022/10/09 01:13:48;;;;;;;5.57;3.38;;;7.10;99.90;;;;;;5042933;28;20064;-83
2022/10/09 01:16:21;;;;;;;17.52;3.50;;;7.10;99.90;;;;;;5039579;28;20049;-84
2022/10/09 01:19:11;;;;;;;8.68;3.13;;;7.10;99.90;;;;;;5046297;28;20077;-83
2022/10/09 01:21:43;;;;;;;5.35;2.90;;;7.10;99.90;;;;;;5045313;28;20076;-84
2022/10/09 01:24:17;;;;;;;13.13;3.45;;;7.10;99.90;;;;;;5039015;28;20064;-84
2022/10/09 01:27:04;;;;;;;7.70;4.82;;;7.00;99.90;;;;;;5047904;28;20064;-84
2022/10/09 01:29:37;;;;;;;5.70;3.20;;;7.00;99.90;;;;;;5043234;28;20054;-84
2022/10/09 01:32:04;;;;;;;10.32;3.30;;;7.00;99.90;;;;;;5042317;28;20050;-85
2022/10/09 01:34:31;;;;;;;12.73;3.45;;;7.00;99.90;;;;;;5046857;28;20372;-84
2022/10/09 01:36:57;;;;;;;6.07;3.72;;;7.00;99.90;;;;;;5043894;28;20045;-84
2022/10/09 01:39:25;;;;;;;6.70;3.65;;;6.90;99.90;;;;;;5046111;28;20045;-85
2022/10/09 01:41:53;;;;;;;9.40;3.35;;;7.00;99.90;;;;;;5050062;28;20653;-84
2022/10/09 01:44:25;;;;;;;7.60;3.10;;;6.90;99.90;;;;;;5056291;28;20046;-84
2022/10/09 01:46:51;;;;;;;7.05;2.83;;;6.90;99.90;;;;;;5054517;28;20072;-84
2022/10/09 01:49:22;;;;;;;7.88;2.95;;;6.90;99.90;;;;;;5029180;28;20045;-84
2022/10/09 01:52:02;;;;;;;6.20;3.03;;;6.90;99.90;;;;;;5048044;28;20033;-84
2022/10/09 01:54:41;;;;;;;11.95;3.00;;;6.90;99.90;;;;;;5033069;28;20073;-85
2022/10/09 01:57:10;;;;;;;7.95;3.17;;;6.80;99.90;;;;;;5052855;28;20056;-85
2022/10/09 01:59:39;;;;;;;7.45;3.17;;;6.80;99.90;;;;;;5035719;28;20052;-84
2022/10/09 02:02:06;;;;;;;11.43;3.33;;;6.80;99.90;;;;;;5050360;28;20052;-84
2022/10/09 02:04:33;;;;;;;8.32;3.05;;;6.70;99.90;;;;;;5053447;28;20453;-84
2022/10/09 02:06:58;;;;;;;9.27;3.30;;;6.70;99.90;;;;;;5063907;28;20049;-84
2022/10/09 02:09:24;;;;;;;6.20;2.97;;;6.70;99.90;;;;;;5050660;28;20048;-85
2022/10/09 02:11:55;;;;;;;8.75;3.30;;;6.70;99.90;;;;;;5044944;28;20045;-83
2022/10/09 02:14:21;;;;;;;10.85;3.60;;;6.70;99.90;;;;;;5048691;28;20056;-83
2022/10/09 02:16:56;;;;;;;7.90;2.75;;;6.70;99.90;;;;;;5049686;28;20045;-82
2022/10/09 02:19:31;;;;;;;9.00;3.33;;;6.70;99.90;;;;;;5049538;28;20573;-83
2022/10/09 02:22:05;;;;;;;3.97;3.10;;;6.70;99.90;;;;;;5041246;28;20042;-83
2022/10/09 02:24:31;;;;;;;5.28;2.78;;;6.60;99.90;;;;;;5042156;28;20040;-83
2022/10/09 02:26:58;;;;;;;7.35;3.33;;;6.70;99.90;;;;;;5044811;28;20073;-83
2022/10/09 02:29:24;;;;;;;9.00;3.53;;;6.50;99.90;;;;;;5050385;28;20056;-83
2022/10/09 02:31:50;;;;;;;8.48;3.63;;;6.60;99.90;;;;;;5044410;28;20053;-83
2022/10/09 02:34:18;;;;;;;8.93;3.72;;;6.50;99.90;;;;;;5046542;28;20041;-83
2022/10/09 02:36:44;;;;;;;4.85;3.28;;;6.60;99.90;;;;;;5049879;28;20086;-83
2022/10/09 02:39:11;;;;;;;7.25;3.55;;;6.50;99.90;;;;;;5033655;28;20189;-83
2022/10/09 02:41:36;;;;;;;11.50;3.38;;;6.50;99.90;;;;;;5029494;28;21683;-83
2022/10/09 02:44:04;;;;;;;5.50;3.45;;;6.50;99.90;;;;;;5043891;28;20067;-83
2022/10/09 02:46:29;;;;;;;5.82;3.08;;;6.50;99.90;;;;;;5043823;28;20100;-83
2022/10/09 02:48:55;;;;;;;3.83;2.58;;;6.40;99.90;;;;;;5021355;28;20111;-83
2022/10/09 02:51:21;;;;;;;6.97;3.00;;;6.40;99.90;;;;;;5046416;28;20137;-83
2022/10/09 02:53:47;;;;;;;6.95;3.50;;;6.40;99.90;;;;;;5043338;28;20144;-83
2022/10/09 02:56:13;;;;;;;6.03;2.95;;;6.30;99.90;;;;;;5044648;28;20443;-84
2022/10/09 02:58:39;;;;;;;7.72;2.95;;;6.40;99.90;;;;;;5031880;28;20049;-84
2022/10/09 03:01:05;;;;;;;6.80;3.05;;;6.30;99.90;;;;;;5045582;28;20053;-85
2022/10/09 03:03:31;;;;;;;7.95;2.72;;;6.40;99.90;;;;;;5046497;28;20096;-84
2022/10/09 03:06:08;;;;;;;7.32;2.65;;;6.30;99.90;;;;;;5027356;28;20090;-84
2022/10/09 03:08:35;;;;;;;10.60;3.40;;;6.30;99.90;;;;;;5049831;28;20179;-84
2022/10/09 03:11:00;;;;;;;4.30;2.35;;;6.30;99.90;;;;;;5045055;28;20045;-85
2022/10/09 03:13:26;;;;;;;8.38;3.55;;;6.30;99.90;;;;;;5044029;28;20049;-85
2022/10/09 03:15:52;;;;;;;8.73;3.35;;;6.30;99.90;;;;;;5041447;28;20075;-85
2022/10/09 03:18:18;;;;;;;9.75;2.97;;;6.30;99.90;;;;;;5031079;28;20051;-85
2022/10/09 03:20:44;;;;;;;9.93;3.55;;;6.20;99.90;;;;;;5046945;28;20069;-85
2022/10/09 03:23:10;;;;;;;8.43;2.90;;;6.20;99.90;;;;;;5030049;28;20044;-85
2022/10/09 03:25:36;;;;;;;7.88;2.85;;;6.20;99.90;;;;;;5033370;28;20049;-84
2022/10/09 03:28:02;;;;;;;6.85;3.30;;;6.20;99.90;;;;;;5033839;28;20049;-84
2022/10/09 03:30:30;;;;;;;11.82;3.25;;;6.20;99.90;;;;;;5044422;28;20104;-84
2022/10/09 03:32:56;;;;;;;8.43;3.17;;;6.20;99.90;;;;;;5044802;28;20068;-84
2022/10/09 03:35:22;;;;;;;6.90;3.28;;;6.20;99.90;;;;;;5045046;28;20038;-85
2022/10/09 03:37:47;;;;;;;4.97;3.42;;;6.10;99.90;;;;;;5063663;28;20073;-85
2022/10/09 03:40:13;;;;;;;12.25;4.05;;;6.10;99.90;;;;;;5015544;28;20056;-85
2022/10/09 03:42:39;;;;;;;6.70;3.40;;;6.00;99.90;;;;;;5046247;28;20045;-84
2022/10/09 03:45:05;;;;;;;5.93;3.20;;;6.10;99.90;;;;;;5030061;28;20128;-84
2022/10/09 03:47:31;;;;;;;8.68;3.38;;;6.00;99.90;;;;;;5027810;28;20060;-85
2022/10/09 03:49:56;;;;;;;6.00;3.67;;;6.00;99.90;;;;;;5044655;28;20037;-85
2022/10/09 03:52:22;;;;;;;6.38;3.45;;;6.00;99.90;;;;;;5029518;28;20083;-84
2022/10/09 03:54:48;;;;;;;4.55;2.70;;;6.00;99.90;;;;;;5046963;28;20053;-85
2022/10/09 03:57:14;;;;;;;7.30;3.30;;;6.00;99.90;;;;;;5046146;28;20033;-85
2022/10/09 03:59:40;;;;;;;5.70;2.80;;;6.00;99.90;;;;;;5042393;28;20586;-85
2022/10/09 04:02:06;;;;;;;10.65;3.83;;;5.90;99.90;;;;;;5050676;28;20045;-83
2022/10/09 04:04:32;;;;;;;6.15;3.28;;;5.90;99.90;;;;;;5032539;28;20088;-83
2022/10/09 04:06:58;;;;;;;7.75;3.03;;;5.90;99.90;;;;;;5028168;28;20057;-84
2022/10/09 04:09:24;;;;;;;4.63;2.78;;;5.80;99.90;;;;;;5044514;28;20045;-83
2022/10/09 04:11:50;;;;;;;7.93;2.85;;;5.80;99.90;;;;;;5041051;28;20043;-83
2022/10/09 04:14:15;;;;;;;5.03;2.90;;;5.80;99.90;;;;;;5025494;28;20121;-83
2022/10/09 04:16:41;;;;;;;9.13;3.70;;;5.80;99.90;;;;;;5032308;28;20076;-83
2022/10/09 04:19:07;;;;;;;7.22;3.10;;;5.80;99.90;;;;;;5041831;28;20547;-83
2022/10/09 04:21:32;;;;;;;5.13;3.05;;;5.80;99.90;;;;;;5042669;28;20037;-84
2022/10/09 04:23:58;;;;;;;8.35;2.88;;;5.80;99.90;;;;;;5041989;28;20052;-84
2022/10/09 04:26:24;;;;;;;7.25;3.13;;;5.80;99.90;;;;;;5046486;28;20056;-84
2022/10/09 04:28:50;;;;;;;8.23;4.00;;;5.70;99.90;;;;;;5039654;28;20041;-83
2022/10/09 04:31:16;;;;;;;6.63;3.25;;;5.70;99.90;;;;;;5034207;28;20589;-84
2022/10/09 04:33:41;;;;;;;9.00;3.47;;;5.80;99.90;;;;;;5043255;28;20048;-84
2022/10/09 04:36:07;;;;;;;5.93;3.15;;;5.80;99.90;;;;;;5041964;28;20049;-85
2022/10/09 04:38:33;;;;;;;13.25;4.57;;;5.80;99.90;;;;;;5040721;28;20037;-84
2022/10/09 04:41:01;;;;;;;6.95;3.47;;;5.80;99.90;;;;;;5045312;28;20137;-84
2022/10/09 04:43:27;;;;;;;8.68;4.35;;;5.80;99.90;;;;;;5048625;28;20120;-84
2022/10/09 04:45:53;;;;;;;8.57;3.65;;;5.70;99.90;;;;;;5038467;28;20084;-84
2022/10/09 04:48:19;;;;;;;7.57;3.78;;;5.70;99.90;;;;;;5028518;28;20053;-84
2022/10/09 04:50:44;;;;;;;9.23;4.22;;;5.70;99.90;;;;;;5038432;28;20141;-84
2022/10/09 04:53:10;;;;;;;7.47;3.33;;;5.70;99.90;;;;;;5027595;28;20084;-84
2022/10/09 04:55:43;;;;;;;6.07;3.53;;;5.70;99.90;;;;;;5044299;28;20063;-84
2022/10/09 04:58:10;;;;;;;7.28;3.20;;;5.60;99.90;;;;;;5044539;28;20061;-84
2022/10/09 05:00:41;;;;;;;6.75;3.13;;;5.70;99.90;;;;;;5042832;28;20042;-84
2022/10/09 05:03:07;;;;;;;6.85;4.25;;;5.70;99.90;;;;;;5040873;28;20056;-84
2022/10/09 05:05:33;;;;;;;10.48;4.60;;;5.70;99.90;;;;;;5044976;28;20041;-84
2022/10/09 05:07:59;;;;;;;6.32;3.88;;;5.60;99.90;;;;;;5024476;28;20056;-83
2022/10/09 05:10:24;;;;;;;12.90;4.13;;;5.70;99.90;;;;;;5023541;28;20079;-84
2022/10/09 05:12:50;;;;;;;6.75;3.15;;;5.60;99.90;;;;;;5043948;28;20076;-84
2022/10/09 05:15:16;;;;;;;9.13;3.40;;;5.60;99.90;;;;;;5022058;28;20704;-84
2022/10/09 05:17:41;;;;;;;4.30;3.47;;;5.60;99.90;;;;;;5028572;28;20105;-85
2022/10/09 05:20:07;;;;;;;9.77;4.47;;;5.60;99.90;;;;;;5027820;28;20191;-85
2022/10/09 05:22:33;;;;;;;8.00;4.70;;;5.60;99.90;;;;;;5048496;28;20037;-84
2022/10/09 05:24:59;;;;;;;13.68;5.28;;;5.60;99.90;;;;;;5027398;28;20093;-85
2022/10/09 05:27:24;;;;;;;10.45;4.40;;;5.60;99.90;;;;;;5047300;28;20067;-84
2022/10/09 05:29:50;;;;;;;10.77;4.75;;;5.60;99.90;;;;;;5047291;28;20056;-84
2022/10/09 05:32:16;;;;;;;15.68;6.20;;;5.60;99.90;;;;;;5034476;28;20115;-84
2022/10/09 05:34:41;;;;;;;9.52;4.80;;;5.60;99.90;;;;;;5036155;28;20033;-84
2022/10/09 05:37:07;;;;;;;10.88;4.88;;;5.60;99.90;;;;;;5025557;28;20049;-84
2022/10/09 05:39:34;;;;;;;8.60;4.82;;;5.60;99.90;;;;;;5031565;28;20048;-84
2022/10/09 05:42:01;;;;;;;11.52;4.70;;;5.70;99.90;;;;;;5049827;28;20053;-84
2022/10/09 05:44:26;;;;;;;7.85;4.15;;;5.60;99.90;;;;;;5035349;28;20029;-84
2022/10/09 05:46:52;;;;;;;10.20;4.60;;;5.70;99.90;;;;;;5052628;28;20072;-84
2022/10/09 05:49:18;;;;;;;9.07;5.03;;;5.70;99.90;;;;;;5053819;28;20045;-84
2022/10/09 05:51:44;;;;;;;9.10;4.32;;;5.70;99.90;;;;;;5048954;28;20128;-84
2022/10/09 05:54:14;;;;;;;10.27;4.30;;;5.70;99.90;;;;;;5030581;28;20056;-84
2022/10/09 05:56:41;;;;;;;12.07;5.40;;;5.70;99.90;;;;;;5048859;28;20049;-83
2022/10/09 05:59:18;;;;;;;9.80;4.78;;;5.70;99.90;;;;;;5032774;28;20077;-84
2022/10/09 06:01:49;;;;;;;10.63;4.63;;;5.70;99.90;;;;;;5048145;28;20045;-83
2022/10/09 06:04:20;;;;;;;10.75;4.18;;;5.70;99.90;;;;;;5040268;28;20096;-84
2022/10/09 06:06:47;;;;;;;10.45;4.22;;;5.70;99.90;;;;;;5047392;28;20479;-83
2022/10/09 06:09:15;;;;;;;9.52;4.90;;;5.70;99.90;;;;;;5039270;28;20041;-84
2022/10/09 06:11:41;;;;;;;9.65;4.18;;;5.70;99.90;;;;;;5045606;28;20055;-84
2022/10/09 06:14:08;;;;;;;12.35;4.95;;;5.70;99.90;;;;;;5031453;28;20128;-84
2022/10/09 06:16:37;;;;;;;9.05;4.10;;;5.70;99.90;;;;;;5049188;28;20041;-84
2022/10/09 06:19:04;;;;;;;8.30;4.82;;;5.80;99.90;;;;;;5044366;28;20064;-84
2022/10/09 06:21:30;;;;;;;7.68;4.82;;;5.80;99.90;;;;;;5020950;28;20057;-84
2022/10/09 06:23:58;;;;;;;11.55;4.35;;;5.90;99.90;;;;;;5031808;28;20049;-85
2022/10/09 06:26:28;;;;;;;12.15;4.50;;;5.90;99.90;;;;;;5032977;28;20048;-85
2022/10/09 06:28:54;;;;;;;8.27;4.97;;;5.90;99.90;;;;;;5049625;28;20061;-84
2022/10/09 06:31:22;;;;;;;8.07;4.43;;;6.00;99.90;;;;;;5033569;28;20046;-84
2022/10/09 06:33:50;;;;;;;8.93;4.93;;;5.90;99.90;;;;;;5029227;28;20487;-86
2022/10/09 06:36:19;;;;;;;8.55;5.07;;;6.10;99.90;;;;;;5041528;28;20563;-86
2022/10/09 06:38:45;;;;;;;13.02;5.50;;;6.10;99.90;;;;;;5032921;28;20036;-85
2022/10/09 06:41:31;;;;;;;6.07;4.50;;;6.10;99.90;;;;;;5014723;28;20048;-85
2022/10/09 06:44:05;;;;;;;10.13;5.00;;;6.20;99.90;;;;;;5051928;28;20057;-85
2022/10/09 06:46:34;;;;;;;9.30;5.43;;;6.20;99.90;;;;;;5025960;28;20051;-85
2022/10/09 06:49:01;;;;;;;8.80;5.18;;;6.30;99.90;;;;;;5056173;28;20060;-84
2022/10/09 06:51:28;;;;;;;10.25;6.68;;;6.30;99.90;;;;;;5043971;28;20040;-85
2022/10/09 06:53:56;;;;;;;9.73;5.97;;;6.40;99.90;;;;;;5039854;28;20045;-84
2022/10/09 06:56:26;;;;;;;19.38;5.07;;;6.40;99.90;;;;;;5049087;28;20052;-84
2022/10/09 06:58:52;;;;;;;8.23;5.43;;;6.60;99.90;;;;;;5033699;28;20063;-84
2022/10/09 07:01:23;;;;;;;9.90;4.88;;;6.50;99.90;;;;;;5035182;28;20184;-85
2022/10/09 07:03:55;;;;;;;10.37;5.00;;;6.50;99.90;;;;;;5056715;28;20162;-84
2022/10/09 07:06:24;;;;;;;7.80;4.65;;;6.60;99.90;;;;;;5032792;28;20040;-84
2022/10/09 07:08:52;;;;;;;7.70;5.35;;;6.60;99.90;;;;;;5046203;28;20081;-84
2022/10/09 07:11:21;;;;;;;14.15;6.10;;;6.70;99.90;;;;;;5029602;28;20029;-83
2022/10/09 07:13:49;;;;;;;10.90;5.75;;;6.80;99.90;;;;;;5046796;28;20041;-83
2022/10/09 07:16:19;;;;;;;10.13;6.28;;;6.80;99.90;;;;;;5048322;28;20072;-84
2022/10/09 07:18:45;;;;;;;9.60;5.30;;;6.90;99.90;;;;;;5044086;28;20045;-84
2022/10/09 07:21:10;;;;;;;13.45;5.53;;;6.90;99.90;;;;;;5032975;28;20052;-85
2022/10/09 07:23:36;;;;;;;10.27;5.22;;;7.00;99.90;;;;;;5011553;28;20107;-84
2022/10/09 07:26:09;;;;;;;11.50;6.22;;;7.10;99.90;;;;;;5032420;28;20041;-84
2022/10/09 07:28:35;;;;;;;9.27;5.60;;;7.20;99.90;;;;;;5042705;28;20120;-84
2022/10/09 07:31:03;;;;;;;11.60;5.68;;;7.20;99.90;;;;;;5028140;28;20108;-84
2022/10/09 07:33:28;;;;;;;8.63;5.68;;;7.20;99.90;;;;;;5042930;28;20055;-84
2022/10/09 07:35:59;;;;;;;12.38;5.65;;;7.30;99.90;;;;;;5045328;28;20620;-84
2022/10/09 07:38:25;;;;;;;11.32;6.43;;;7.30;99.90;;;;;;5044678;28;20109;-85
2022/10/09 07:40:52;;;;;;;8.63;5.60;;;7.30;99.90;;;;;;5044373;28;20117;-85
2022/10/09 07:43:18;;;;;;;14.65;8.55;;;7.40;99.90;;;;;;5034052;28;20044;-85
2022/10/09 07:45:44;;;;;;;14.93;6.97;;;7.50;99.90;;;;;;5047115;28;20455;-84
2022/10/09 07:48:09;;;;;;;12.40;6.70;;;7.50;99.90;;;;;;5025430;28;20555;-85
2022/10/09 07:50:35;;;;;;;10.90;6.28;;;7.60;99.90;;;;;;5042681;28;20110;-84
2022/10/09 07:53:01;;;;;;;10.98;6.15;;;7.60;99.90;;;;;;5016298;28;20045;-84
2022/10/09 07:55:27;;;;;;;17.33;8.25;;;7.70;99.90;;;;;;5029405;28;20041;-84
2022/10/09 07:57:52;;;;;;;13.93;6.43;;;7.80;99.90;;;;;;5047770;28;20057;-83
2022/10/09 08:00:18;;;;;;;9.70;6.10;;;7.80;99.90;;;;;;5049050;28;20076;-84
2022/10/09 08:02:44;;;;;;;23.63;8.35;;;7.80;99.90;;;;;;5035752;28;20052;-85
2022/10/09 08:05:10;;;;;;;11.43;6.32;;;7.90;99.90;;;;;;5033608;28;20085;-84
2022/10/09 08:07:35;;;;;;;11.60;6.82;;;7.90;99.90;;;;;;5050004;28;20041;-84
2022/10/09 08:10:02;;;;;;;14.57;7.25;;;8.00;99.90;;;;;;5035934;28;20044;-85
2022/10/09 08:12:28;;;;;;;12.65;7.70;;;8.10;99.90;;;;;;5053664;28;20048;-84
2022/10/09 08:14:53;;;;;;;38.03;19.67;;;8.10;99.90;;;;;;5033908;28;20050;-84
2022/10/09 08:17:19;;;;;;;11.77;7.05;;;8.20;99.90;;;;;;5050086;28;20049;-83
2022/10/09 08:19:45;;;;;;;10.60;7.55;;;8.30;99.90;;;;;;5037678;28;20059;-85
2022/10/09 08:22:11;;;;;;;15.32;8.38;;;8.40;99.90;;;;;;5042654;28;20570;-85
2022/10/09 08:24:37;;;;;;;11.40;7.00;;;8.50;99.90;;;;;;5050656;28;20036;-85
2022/10/09 08:27:02;;;;;;;14.18;6.68;;;8.60;99.90;;;;;;5038965;28;20045;-86
2022/10/09 08:29:28;;;;;;;13.57;6.65;;;8.70;99.90;;;;;;5016035;28;20088;-86
2022/10/09 08:31:54;;;;;;;11.98;6.47;;;8.80;99.90;;;;;;5033236;28;20049;-86
2022/10/09 08:34:20;;;;;;;10.27;6.63;;;9.00;99.90;;;;;;5038763;28;20052;-85
2022/10/09 08:36:45;;;;;;;10.32;5.93;;;9.10;99.90;;;;;;5039977;28;20041;-85
2022/10/09 08:39:12;;;;;;;16.20;6.55;;;9.20;99.90;;;;;;5060281;28;20040;-86
2022/10/09 08:41:45;;;;;;;15.23;6.65;;;9.30;99.90;;;;;;5042172;28;20048;-85
2022/10/09 08:44:16;;;;;;;13.85;6.18;;;9.40;99.90;;;;;;5027692;28;20037;-86
2022/10/09 08:46:54;;;;;;;12.27;6.03;;;9.50;99.90;;;;;;5041655;28;20037;-86
2022/10/09 08:49:55;;;;;;;12.25;7.07;;;9.60;99.90;;;;;;5041186;28;20071;-86
2022/10/09 08:52:49;;;;;;;14.55;6.50;;;9.70;99.90;;;;;;5044887;28;20104;-87
2022/10/09 08:55:25;;;;;;;13.75;5.90;;;9.90;99.90;;;;;;5040345;28;20061;-85
2022/10/09 08:57:59;;;;;;;11.52;6.43;;;10.00;99.90;;;;;;5041225;28;20059;-86
2022/10/09 09:00:53;;;;;;;13.98;5.95;;;10.10;99.90;;;;;;5029076;28;20041;-87
2022/10/09 09:03:45;;;;;;;13.00;5.40;;;10.20;99.90;;;;;;5041167;28;20131;-87
2022/10/09 09:06:19;;;;;;;8.75;5.40;;;10.40;99.90;;;;;;5048719;28;20059;-87
2022/10/09 09:08:57;;;;;;;14.27;5.97;;;10.40;99.90;;;;;;5041969;28;20045;-87
2022/10/09 09:12:00;;;;;;;9.38;5.00;;;10.60;99.90;;;;;;5045026;28;20060;-87
2022/10/09 09:14:31;;;;;;;12.10;4.38;;;10.80;99.90;;;;;;5065628;28;20168;-85
2022/10/09 09:17:02;;;;;;;12.35;5.38;;;11.00;99.90;;;;;;5061468;28;20041;-85
2022/10/09 09:19:44;;;;;;;10.27;4.68;;;11.10;99.90;;;;;;5063815;28;20045;-85
2022/10/09 09:22:12;;;;;;;;;;;11.30;99.90;;;;;;5063363;28;20044;-83
2022/10/09 09:24:43;;;;;;;8.57;4.30;;;11.40;99.90;;;;;;5055993;28;19980;-86
2022/10/09 09:27:27;;;;;;;7.90;4.40;;;11.80;99.90;;;;;;5053379;28;20043;-87
2022/10/09 09:30:00;;;;;;;10.48;4.10;;;12.40;99.90;;;;;;5059476;28;20172;-86
2022/10/09 09:32:29;;;;;;;13.88;4.50;;;13.10;99.90;;;;;;5039448;28;20056;-86
2022/10/09 09:35:14;;;;;;;9.38;3.47;;;13.70;99.90;;;;;;5042796;28;20041;-87
2022/10/09 09:37:40;;;;;;;16.40;4.35;;;14.20;99.90;;;;;;5036857;28;20053;-86
2022/10/09 09:40:14;;;;;;;8.88;4.13;;;14.60;99.90;;;;;;5037465;28;20049;-86
2022/10/09 09:42:41;;;;;;;7.85;3.42;;;15.00;99.90;;;;;;5050859;28;20101;-86
2022/10/09 09:45:15;;;;;;;8.15;4.03;;;15.40;99.90;;;;;;5037430;28;20132;-86
2022/10/09 09:47:48;;;;;;;12.30;3.67;;;15.90;99.90;;;;;;5054453;28;20080;-86
2022/10/09 09:50:13;;;;;;;10.73;3.55;;;16.30;99.90;;;;;;5036782;28;20080;-86
2022/10/09 09:52:43;;;;;;;8.93;3.75;;;16.60;99.90;;;;;;5036824;28;20053;-86
2022/10/09 09:55:38;;;;;;;8.25;3.88;;;16.80;99.90;;;;;;5041302;28;20103;-86
2022/10/09 09:58:14;;;;;;;10.05;3.70;;;16.60;99.90;;;;;;5029008;28;20068;-85
2022/10/09 10:00:40;;;;;;;8.10;4.40;;;16.60;99.90;;;;;;5022881;28;20056;-84
2022/10/09 10:03:14;;;;;;;10.90;3.72;;;16.50;99.90;;;;;;5020343;28;20053;-86
2022/10/09 10:05:41;;;;;;;10.75;3.67;;;16.30;99.90;;;;;;5022365;28;20096;-87
2022/10/09 10:08:21;;;;;;;7.10;3.47;;;16.00;99.90;;;;;;5041721;28;20071;-85
2022/10/09 10:10:47;;;;;;;11.35;3.58;;;15.70;99.90;;;;;;5052931;28;20037;-86
2022/10/09 10:13:19;;;;;;;13.02;4.15;;;15.50;99.90;;;;;;5055005;28;20042;-86
2022/10/09 10:15:50;;;;;;;;;;;15.40;99.90;;;;;;5047671;28;20045;-85
2022/10/09 10:18:17;;;;;;;8.07;3.10;;;15.20;99.90;;;;;;5024157;28;19932;-87
2022/10/09 10:20:50;;;;;;;14.02;3.63;;;15.20;99.90;;;;;;5030397;28;20652;-84
2022/10/09 10:23:28;;;;;;;7.65;3.20;;;15.20;99.90;;;;;;5051852;28;20056;-84
2022/10/09 10:25:57;;;;;;;10.02;3.38;;;15.10;99.90;;;;;;5030466;28;20037;-84
2022/10/09 10:28:31;;;;;;;13.55;3.08;;;15.00;99.90;;;;;;5035186;28;20044;-85
2022/10/09 10:30:59;;;;;;;9.43;3.53;;;15.00;99.90;;;;;;5041363;28;20055;-84
2022/10/09 10:33:31;;;;;;;6.63;3.60;;;15.00;99.90;;;;;;5029368;28;20029;-84
2022/10/09 10:35:58;;;;;;;10.50;3.75;;;14.90;99.90;;;;;;5038892;28;20132;-84
2022/10/09 10:38:34;;;;;;;14.80;5.85;;;14.90;99.90;;;;;;5024455;28;20041;-84
2022/10/09 10:41:23;;;;;;;20.90;4.47;;;14.90;99.90;;;;;;5040139;28;20084;-84
2022/10/09 10:44:00;;;;;;;11.73;3.92;;;15.00;99.90;;;;;;5025419;28;20053;-83
2022/10/09 10:46:48;;;;;;;15.02;4.28;;;15.00;99.90;;;;;;5031062;28;20469;-83
2022/10/09 10:49:19;;;;;;;13.00;4.80;;;14.90;99.90;;;;;;5039721;28;20041;-83
2022/10/09 10:52:00;;;;;;;10.35;3.53;;;15.00;99.90;;;;;;5031687;28;20075;-84
2022/10/09 10:54:28;;;;;;;7.53;3.15;;;15.00;99.90;;;;;;5038946;28;20057;-84
2022/10/09 10:57:06;;;;;;;20.50;7.88;;;14.90;99.90;;;;;;5025276;28;20045;-83
2022/10/09 10:59:55;;;;;;;10.60;3.45;;;15.00;99.90;;;;;;5025497;28;20081;-84
2022/10/09 11:02:25;;;;;;;8.50;3.13;;;15.00;99.90;;;;;;5052365;28;20052;-84
2022/10/09 11:05:16;;;;;;;10.27;3.15;;;15.10;99.90;;;;;;5044040;28;20050;-84
2022/10/09 11:08:16;;;;;;;10.75;4.53;;;15.10;99.90;;;;;;5033680;28;20083;-84
2022/10/09 11:11:21;;;;;;;12.10;4.43;;;15.20;99.90;;;;;;5035016;28;20069;-82
2022/10/09 11:13:55;;;;;;;9.30;3.92;;;15.30;99.90;;;;;;5062734;28;20083;-84
2022/10/09 11:16:23;;;;;;;9.02;4.15;;;15.30;99.90;;;;;;5044994;28;20071;-84
2022/10/09 11:19:17;;;;;;;12.43;3.00;;;15.30;99.90;;;;;;5047582;28;20045;-83
2022/10/09 11:22:01;;;;;;;8.55;3.20;;;15.30;99.90;;;;;;5024984;28;20041;-85
2022/10/09 11:24:42;;;;;;;8.07;2.92;;;15.30;99.90;;;;;;5045650;28;20056;-82
2022/10/09 11:27:38;;;;;;;10.00;3.15;;;15.30;99.90;;;;;;5046728;28;20049;-81
2022/10/09 11:30:13;;;;;;;10.10;3.30;;;15.30;99.90;;;;;;5052618;28;20053;-80
2022/10/09 11:32:54;;;;;;;11.82;3.35;;;15.30;99.90;;;;;;5055846;28;20045;-82
2022/10/09 11:35:29;;;;;;;9.32;3.63;;;15.40;99.90;;;;;;5037443;28;20049;-81
2022/10/09 11:38:05;;;;;;;8.68;3.15;;;15.50;99.90;;;;;;5031990;28;20408;-81
2022/10/09 11:40:38;;;;;;;9.63;2.70;;;15.60;99.90;;;;;;5023053;28;20054;-81
2022/10/09 11:43:22;;;;;;;8.50;2.90;;;15.70;99.90;;;;;;5038376;28;20435;-82
2022/10/09 11:46:16;;;;;;;4.43;2.15;;;15.90;99.90;;;;;;5039176;28;20097;-83
2022/10/09 11:48:45;;;;;;;6.85;2.50;;;16.00;99.90;;;;;;5052042;28;20111;-83
2022/10/09 11:51:14;;;;;;;9.63;2.50;;;16.10;99.90;;;;;;5041520;28;20069;-82
2022/10/09 11:53:41;;;;;;;6.82;2.30;;;16.30;99.90;;;;;;5043299;28;20095;-82
2022/10/09 11:56:22;;;;;;;7.63;2.50;;;16.30;99.90;;;;;;5045058;28;20470;-83
2022/10/09 11:59:02;;;;;;;9.27;2.80;;;16.30;99.90;;;;;;5039394;28;20057;-82
2022/10/09 12:01:33;;;;;;;7.65;2.38;;;16.40;99.90;;;;;;5022277;28;20051;-83
2022/10/09 12:04:21;;;;;;;11.95;3.28;;;16.40;99.90;;;;;;5038928;28;20049;-83
2022/10/09 12:06:56;;;;;;;7.22;3.08;;;16.50;99.90;;;;;;5038152;28;20083;-81
2022/10/09 12:09:27;;;;;;;10.25;2.80;;;16.50;99.90;;;;;;5040117;28;20065;-82
2022/10/09 12:12:01;;;;;;;7.45;2.83;;;16.40;99.90;;;;;;5037236;28;20081;-81
2022/10/09 12:14:28;;;;;;;5.45;2.92;;;16.40;99.90;;;;;;5038147;28;20060;-82
2022/10/09 12:16:55;;;;;;;7.88;2.70;;;16.50;99.90;;;;;;5038922;28;20072;-82
2022/10/09 12:19:33;;;;;;;4.75;1.80;;;16.50;99.90;;;;;;5037620;28;20050;-82
2022/10/09 12:22:01;;;;;;;9.27;2.20;;;16.60;99.90;;;;;;5038607;28;20049;-82
2022/10/09 12:24:37;;;;;;;7.65;2.22;;;16.60;99.90;;;;;;5037415;28;20077;-82
2022/10/09 12:27:03;;;;;;;8.10;2.45;;;16.70;99.90;;;;;;5022298;28;20041;-82
2022/10/09 12:29:43;;;;;;;6.55;2.10;;;16.80;99.90;;;;;;5038520;28;20068;-82
2022/10/09 12:32:24;;;;;;;6.93;1.80;;;16.80;99.90;;;;;;5045315;28;20057;-82
2022/10/09 12:34:51;;;;;;;5.32;2.10;;;16.70;99.90;;;;;;5044465;28;20067;-82
2022/10/09 12:37:20;;;;;;;8.55;2.63;;;16.80;99.90;;;;;;5037336;28;20056;-83
2022/10/09 12:39:48;;;;;;;11.05;2.83;;;16.90;99.90;;;;;;5022052;28;20101;-82
2022/10/09 12:42:17;;;;;;;8.88;2.20;;;16.90;99.90;;;;;;5041097;28;20058;-82
2022/10/09 12:44:44;;;;;;;8.15;2.35;;;16.90;99.90;;;;;;5057639;28;20380;-83
2022/10/09 12:47:28;;;;;;;4.60;1.67;;;16.90;99.90;;;;;;5041640;28;20045;-82
2022/10/09 12:50:18;;;;;;;7.57;2.55;;;17.00;99.90;;;;;;5057236;28;20059;-83
2022/10/09 12:52:52;;;;;;;5.28;1.67;;;16.90;99.90;;;;;;5055787;28;20045;-83
2022/10/09 12:55:29;;;;;;;7.13;2.35;;;16.70;99.90;;;;;;5030700;28;20045;-82
2022/10/09 12:58:06;;;;;;;8.73;1.63;;;16.70;99.90;;;;;;5038582;28;20530;-82
2022/10/09 13:00:33;;;;;;;4.18;1.45;;;16.60;99.90;;;;;;5038037;28;20079;-82
2022/10/09 13:03:00;;;;;;;8.77;2.20;;;16.60;99.90;;;;;;5037084;28;20491;-82
2022/10/09 13:05:41;;;;;;;4.45;1.95;;;16.80;99.90;;;;;;5058741;28;20045;-82
2022/10/09 13:08:26;;;;;;;5.68;1.88;;;16.90;99.00;;;;;;5057828;28;20082;-82